Lithia, Virginia
Current Conditions -  °F | °C
As of 4:54 AM on Friday 24 Oct 2014 (Local Time) from KROA Reporting Station
Clear Clear  
Wind Chill: 42°   Ceiling: Unl
Heat Index: 47°   Visibility: 10mi
Dew Point: 39°   Wind: 10mph
Humidity: 74%   Direction: 290°WNW
Pressure: 30.08"   Gusts: NA
Location:  37.5115°N, 79.6704°W
Report Text: KROA 240854Z 29009KT 10SM CLR 08/04 A3008 RMK AO2 SLP183 T00830039 55000
Loading
Personal Weather Stations






























Interactive Weather Map
Tropical Storm Tracking
New forecast layout! Learn more

10-Day Weather Forecast

Advertisements
Track Severe Weather on mobile